GENERAL EDWARD LAWRENCE LOGAN INTL

KBOS (BOS)
Boston, Massachusetts
Towered

Vatsim Metar:
KBOS 190954Z 22004KT 10SM FEW065 BKN150 BKN220 24/21 A2997 RMK AO2 SLP149 T02440211

No ATC Online

Traffic

Inbound:
None
Outbound:
Ident
Type
Name
Destination
Phase